sensor_id;sensor_type;location;lat;lon;timestamp;pressure;altitude;pressure_sealevel;temperature;humidity
30873;BME280;17579;42.690;2.586;2023-06-14T00:02:05;96508.22;;;20.09;62.08
30873;BME280;17579;42.690;2.586;2023-06-14T00:04:37;96499.59;;;20.07;61.84
30873;BME280;17579;42.690;2.586;2023-06-14T00:07:07;96503.31;;;20.06;61.91
30873;BME280;17579;42.690;2.586;2023-06-14T00:09:35;96501.44;;;20.06;61.65
30873;BME280;17579;42.690;2.586;2023-06-14T00:12:10;96510.97;;;20.02;62.06
30873;BME280;17579;42.690;2.586;2023-06-14T00:14:49;96500.69;;;19.99;62.01
30873;BME280;17579;42.690;2.586;2023-06-14T00:17:17;96501.66;;;20.05;62.44
30873;BME280;17579;42.690;2.586;2023-06-14T00:19:55;96500.41;;;20.07;61.96
30873;BME280;17579;42.690;2.586;2023-06-14T00:22:26;96504.84;;;20.14;62.10
30873;BME280;17579;42.690;2.586;2023-06-14T00:24:57;96501.50;;;20.18;61.78
30873;BME280;17579;42.690;2.586;2023-06-14T00:27:43;96501.66;;;20.23;61.64
30873;BME280;17579;42.690;2.586;2023-06-14T00:30:11;96492.56;;;20.24;61.27
30873;BME280;17579;42.690;2.586;2023-06-14T00:32:39;96498.28;;;20.28;61.18
30873;BME280;17579;42.690;2.586;2023-06-14T00:38:04;96490.63;;;20.32;60.56
30873;BME280;17579;42.690;2.586;2023-06-14T00:40:30;96490.38;;;20.33;60.91
30873;BME280;17579;42.690;2.586;2023-06-14T00:43:17;96490.16;;;20.35;60.99
30873;BME280;17579;42.690;2.586;2023-06-14T00:45:42;96485.75;;;20.40;60.25
30873;BME280;17579;42.690;2.586;2023-06-14T00:48:08;96481.19;;;20.41;60.53
30873;BME280;17579;42.690;2.586;2023-06-14T00:50:58;96492.09;;;20.46;61.14
30873;BME280;17579;42.690;2.586;2023-06-14T00:53:35;96487.53;;;20.47;60.17
30873;BME280;17579;42.690;2.586;2023-06-14T00:56:04;96491.34;;;20.39;60.33
30873;BME280;17579;42.690;2.586;2023-06-14T00:58:53;96493.06;;;20.33;60.74
30873;BME280;17579;42.690;2.586;2023-06-14T01:01:20;96489.47;;;20.39;60.10
30873;BME280;17579;42.690;2.586;2023-06-14T01:03:48;96490.50;;;20.38;60.44
30873;BME280;17579;42.690;2.586;2023-06-14T01:06:23;96483.97;;;20.34;60.14
30873;BME280;17579;42.690;2.586;2023-06-14T01:09:07;96493.28;;;20.32;60.35
30873;BME280;17579;42.690;2.586;2023-06-14T01:11:44;96489.78;;;20.31;60.37
30873;BME280;17579;42.690;2.586;2023-06-14T01:14:17;96486.84;;;20.33;59.94
30873;BME280;17579;42.690;2.586;2023-06-14T01:16:49;96485.94;;;20.27;60.15
30873;BME280;17579;42.690;2.586;2023-06-14T01:19:18;96496.44;;;20.29;59.70
30873;BME280;17579;42.690;2.586;2023-06-14T01:21:49;96499.94;;;20.29;59.77
30873;BME280;17579;42.690;2.586;2023-06-14T01:24:26;96503.19;;;20.31;59.84
30873;BME280;17579;42.690;2.586;2023-06-14T01:27:03;96504.28;;;20.30;59.96
30873;BME280;17579;42.690;2.586;2023-06-14T01:29:41;96515.38;;;20.34;60.48
30873;BME280;17579;42.690;2.586;2023-06-14T01:32:14;96524.38;;;20.39;60.05
30873;BME280;17579;42.690;2.586;2023-06-14T01:37:34;96518.78;;;20.41;59.52
30873;BME280;17579;42.690;2.586;2023-06-14T01:40:05;96505.66;;;20.33;59.97
30873;BME280;17579;42.690;2.586;2023-06-14T01:42:36;96506.13;;;20.30;59.23
30873;BME280;17579;42.690;2.586;2023-06-14T01:45:04;96504.72;;;20.27;59.66
30873;BME280;17579;42.690;2.586;2023-06-14T01:47:36;96507.84;;;20.24;59.82
30873;BME280;17579;42.690;2.586;2023-06-14T01:50:03;96508.28;;;20.21;59.83
30873;BME280;17579;42.690;2.586;2023-06-14T01:52:29;96513.66;;;20.21;59.97
30873;BME280;17579;42.690;2.586;2023-06-14T01:54:55;96509.56;;;20.18;59.71
30873;BME280;17579;42.690;2.586;2023-06-14T01:57:24;96511.88;;;20.15;59.59
30873;BME280;17579;42.690;2.586;2023-06-14T01:59:56;96505.69;;;20.14;59.82
30873;BME280;17579;42.690;2.586;2023-06-14T02:02:46;96504.50;;;20.10;59.62
30873;BME280;17579;42.690;2.586;2023-06-14T02:05:13;96501.81;;;20.10;59.54
30873;BME280;17579;42.690;2.586;2023-06-14T02:07:44;96499.38;;;20.08;59.77
30873;BME280;17579;42.690;2.586;2023-06-14T02:10:13;96510.09;;;20.08;60.12
30873;BME280;17579;42.690;2.586;2023-06-14T02:12:46;96502.84;;;20.09;60.14
30873;BME280;17579;42.690;2.586;2023-06-14T02:15:14;96500.16;;;20.09;60.14
30873;BME280;17579;42.690;2.586;2023-06-14T02:17:41;96502.63;;;20.11;60.07
30873;BME280;17579;42.690;2.586;2023-06-14T02:20:07;96499.94;;;20.11;60.27
30873;BME280;17579;42.690;2.586;2023-06-14T02:22:33;96497.25;;;20.11;60.56
30873;BME280;17579;42.690;2.586;2023-06-14T02:24:59;96489.78;;;20.13;60.46
30873;BME280;17579;42.690;2.586;2023-06-14T02:27:36;96498.06;;;20.11;60.17
30873;BME280;17579;42.690;2.586;2023-06-14T02:30:11;96491.44;;;20.14;59.89
30873;BME280;17579;42.690;2.586;2023-06-14T02:32:37;96504.06;;;20.13;60.24
30873;BME280;17579;42.690;2.586;2023-06-14T02:35:13;96499.50;;;20.14;60.66
30873;BME280;17579;42.690;2.586;2023-06-14T02:37:41;96499.72;;;20.12;60.08
30873;BME280;17579;42.690;2.586;2023-06-14T02:43:00;96509.19;;;20.15;59.96
30873;BME280;17579;42.690;2.586;2023-06-14T02:45:30;96514.19;;;20.11;60.36
30873;BME280;17579;42.690;2.586;2023-06-14T02:47:57;96516.84;;;20.11;60.24
30873;BME280;17579;42.690;2.586;2023-06-14T02:50:25;96512.78;;;20.08;60.44
30873;BME280;17579;42.690;2.586;2023-06-14T02:52:59;96520.63;;;20.10;60.33
30873;BME280;17579;42.690;2.586;2023-06-14T02:55:44;96528.66;;;20.10;60.34
30873;BME280;17579;42.690;2.586;2023-06-14T02:58:19;96534.25;;;20.08;60.41
30873;BME280;17579;42.690;2.586;2023-06-14T03:00:50;96535.66;;;20.11;60.66
30873;BME280;17579;42.690;2.586;2023-06-14T03:03:29;96542.00;;;20.17;60.62
30873;BME280;17579;42.690;2.586;2023-06-14T03:06:06;96544.69;;;20.17;60.69
30873;BME280;17579;42.690;2.586;2023-06-14T03:08:41;96530.66;;;20.15;60.87
30873;BME280;17579;42.690;2.586;2023-06-14T03:11:22;96539.94;;;20.19;60.65
30873;BME280;17579;42.690;2.586;2023-06-14T03:14:01;96541.19;;;20.16;60.84
30873;BME280;17579;42.690;2.586;2023-06-14T03:16:47;96538.66;;;20.21;60.47
30873;BME280;17579;42.690;2.586;2023-06-14T03:19:15;96536.34;;;20.25;60.63
30873;BME280;17579;42.690;2.586;2023-06-14T03:21:52;96531.78;;;20.25;60.49
30873;BME280;17579;42.690;2.586;2023-06-14T03:24:19;96542.97;;;20.22;60.59
30873;BME280;17579;42.690;2.586;2023-06-14T03:26:50;96535.38;;;20.19;60.63
30873;BME280;17579;42.690;2.586;2023-06-14T03:29:35;96548.03;;;20.12;60.95
30873;BME280;17579;42.690;2.586;2023-06-14T03:32:16;96538.84;;;20.20;60.74
30873;BME280;17579;42.690;2.586;2023-06-14T03:35:05;96535.44;;;20.13;60.91
30873;BME280;17579;42.690;2.586;2023-06-14T03:37:33;96537.25;;;20.19;61.17
30873;BME280;17579;42.690;2.586;2023-06-14T03:40:02;96542.59;;;20.19;60.88
30873;BME280;17579;42.690;2.586;2023-06-14T03:42:41;96530.81;;;20.20;60.84
30873;BME280;17579;42.690;2.586;2023-06-14T03:45:17;96534.25;;;20.27;60.83
30873;BME280;17579;42.690;2.586;2023-06-14T03:47:46;96531.13;;;20.30;61.17
30873;BME280;17579;42.690;2.586;2023-06-14T03:50:14;96535.44;;;20.31;60.89
30873;BME280;17579;42.690;2.586;2023-06-14T03:52:40;96539.53;;;20.34;61.09
30873;BME280;17579;42.690;2.586;2023-06-14T03:55:11;96545.53;;;20.36;60.80
30873;BME280;17579;42.690;2.586;2023-06-14T03:57:38;96539.53;;;20.34;60.86
30873;BME280;17579;42.690;2.586;2023-06-14T04:00:05;96540.38;;;20.34;61.18
30873;BME280;17579;42.690;2.586;2023-06-14T04:03:00;96546.84;;;20.27;61.42
30873;BME280;17579;42.690;2.586;2023-06-14T04:05:36;96540.66;;;20.26;61.54
30873;BME280;17579;42.690;2.586;2023-06-14T04:08:02;96540.72;;;20.19;62.26
30873;BME280;17579;42.690;2.586;2023-06-14T04:10:31;96544.31;;;20.13;62.62
30873;BME280;17579;42.690;2.586;2023-06-14T04:13:06;96544.16;;;20.08;63.31
30873;BME280;17579;42.690;2.586;2023-06-14T04:15:45;96537.38;;;20.05;63.62
30873;BME280;17579;42.690;2.586;2023-06-14T04:18:12;96553.69;;;20.04;63.16
30873;BME280;17579;42.690;2.586;2023-06-14T04:20:45;96556.25;;;19.99;63.31
30873;BME280;17579;42.690;2.586;2023-06-14T04:23:32;96556.25;;;19.99;64.12
30873;BME280;17579;42.690;2.586;2023-06-14T04:26:04;96567.19;;;19.97;63.64
30873;BME280;17579;42.690;2.586;2023-06-14T04:28:30;96571.38;;;19.93;64.53
30873;BME280;17579;42.690;2.586;2023-06-14T04:31:05;96564.63;;;19.84;64.79
30873;BME280;17579;42.690;2.586;2023-06-14T04:33:40;96554.81;;;19.71;65.02
30873;BME280;17579;42.690;2.586;2023-06-14T04:36:10;96563.16;;;19.63;65.23
30873;BME280;17579;42.690;2.586;2023-06-14T04:38:41;96558.22;;;19.60;65.85
30873;BME280;17579;42.690;2.586;2023-06-14T04:41:13;96575.81;;;19.55;66.06
30873;BME280;17579;42.690;2.586;2023-06-14T04:43:41;96579.88;;;19.58;66.24
30873;BME280;17579;42.690;2.586;2023-06-14T04:46:09;96583.41;;;19.59;66.15
30873;BME280;17579;42.690;2.586;2023-06-14T04:48:42;96586.09;;;19.59;66.82
30873;BME280;17579;42.690;2.586;2023-06-14T04:51:10;96596.59;;;19.60;67.06
30873;BME280;17579;42.690;2.586;2023-06-14T04:53:46;96587.94;;;19.58;67.42
30873;BME280;17579;42.690;2.586;2023-06-14T04:56:21;96595.22;;;19.51;67.34
30873;BME280;17579;42.690;2.586;2023-06-14T04:58:50;96597.56;;;19.41;67.87
30873;BME280;17579;42.690;2.586;2023-06-14T05:01:28;96598.25;;;19.29;68.12
30873;BME280;17579;42.690;2.586;2023-06-14T05:03:59;96599.94;;;19.24;68.82
30873;BME280;17579;42.690;2.586;2023-06-14T05:06:35;96605.72;;;19.20;69.77
30873;BME280;17579;42.690;2.586;2023-06-14T05:09:13;96608.25;;;19.15;70.16
30873;BME280;17579;42.690;2.586;2023-06-14T05:11:44;96611.59;;;19.11;70.67
30873;BME280;17579;42.690;2.586;2023-06-14T05:14:16;96616.53;;;19.07;70.17
30873;BME280;17579;42.690;2.586;2023-06-14T05:16:47;96621.50;;;19.03;70.63
30873;BME280;17579;42.690;2.586;2023-06-14T05:19:18;96628.97;;;18.95;70.98
30873;BME280;17579;42.690;2.586;2023-06-14T05:22:10;96625.28;;;18.82;71.24
30873;BME280;17579;42.690;2.586;2023-06-14T05:24:36;96624.47;;;18.82;71.42
30873;BME280;17579;42.690;2.586;2023-06-14T05:27:16;96620.38;;;18.73;72.17
30873;BME280;17579;42.690;2.586;2023-06-14T05:29:59;96615.84;;;18.73;72.38
30873;BME280;17579;42.690;2.586;2023-06-14T05:32:25;96620.38;;;18.73;72.77
30873;BME280;17579;42.690;2.586;2023-06-14T05:34:54;96620.19;;;18.67;73.10
30873;BME280;17579;42.690;2.586;2023-06-14T05:37:19;96633.59;;;18.67;73.16
30873;BME280;17579;42.690;2.586;2023-06-14T05:39:50;96629.50;;;18.65;73.46
30873;BME280;17579;42.690;2.586;2023-06-14T05:42:19;96630.53;;;18.64;73.15
30873;BME280;17579;42.690;2.586;2023-06-14T05:44:44;96625.34;;;18.69;73.90
30873;BME280;17579;42.690;2.586;2023-06-14T05:47:10;96629.66;;;18.70;74.22
30873;BME280;17579;42.690;2.586;2023-06-14T05:49:36;96636.47;;;18.73;74.45
30873;BME280;17579;42.690;2.586;2023-06-14T05:52:02;96642.41;;;18.75;74.18
30873;BME280;17579;42.690;2.586;2023-06-14T05:54:51;96635.44;;;18.74;74.30
30873;BME280;17579;42.690;2.586;2023-06-14T05:57:40;96630.03;;;18.80;74.08
30873;BME280;17579;42.690;2.586;2023-06-14T06:00:10;96635.38;;;18.80;74.18
30873;BME280;17579;42.690;2.586;2023-06-14T06:02:40;96641.38;;;18.82;74.27
30873;BME280;17579;42.690;2.586;2023-06-14T06:05:14;96639.72;;;18.81;74.39
30873;BME280;17579;42.690;2.586;2023-06-14T06:08:05;96652.09;;;18.82;74.70
30873;BME280;17579;42.690;2.586;2023-06-14T06:10:38;96647.50;;;18.96;74.85
30873;BME280;17579;42.690;2.586;2023-06-14T06:13:24;96652.84;;;19.03;74.66
30873;BME280;17579;42.690;2.586;2023-06-14T06:16:01;96662.69;;;19.09;74.94
30873;BME280;17579;42.690;2.586;2023-06-14T06:18:40;96663.13;;;19.13;74.65
30873;BME280;17579;42.690;2.586;2023-06-14T06:21:06;96670.34;;;19.12;74.85
30873;BME280;17579;42.690;2.586;2023-06-14T06:23:32;96675.28;;;19.09;74.40
30873;BME280;17579;42.690;2.586;2023-06-14T06:26:11;96674.06;;;19.11;74.22
30873;BME280;17579;42.690;2.586;2023-06-14T06:28:39;96680.22;;;19.12;74.92
30873;BME280;17579;42.690;2.586;2023-06-14T06:31:14;96681.88;;;19.13;74.95
30873;BME280;17579;42.690;2.586;2023-06-14T06:33:40;96676.09;;;19.16;74.64
30873;BME280;17579;42.690;2.586;2023-06-14T06:36:08;96678.34;;;19.19;75.11
30873;BME280;17579;42.690;2.586;2023-06-14T06:38:40;96679.19;;;19.19;74.65
30873;BME280;17579;42.690;2.586;2023-06-14T06:41:21;96675.41;;;19.27;74.94
30873;BME280;17579;42.690;2.586;2023-06-14T06:44:06;96675.75;;;19.37;74.23
30873;BME280;17579;42.690;2.586;2023-06-14T06:46:34;96660.44;;;19.45;74.81
30873;BME280;17579;42.690;2.586;2023-06-14T06:49:10;96664.53;;;19.54;74.12
30873;BME280;17579;42.690;2.586;2023-06-14T06:51:42;96659.94;;;19.61;74.23
30873;BME280;17579;42.690;2.586;2023-06-14T06:54:11;96655.50;;;19.73;73.64
30873;BME280;17579;42.690;2.586;2023-06-14T06:56:39;96656.72;;;19.78;73.55
30873;BME280;17579;42.690;2.586;2023-06-14T06:59:25;96663.53;;;19.80;73.59
30873;BME280;17579;42.690;2.586;2023-06-14T07:04:39;96661.41;;;20.95;71.68
30873;BME280;17579;42.690;2.586;2023-06-14T07:07:08;96669.75;;;21.05;70.82
30873;BME280;17579;42.690;2.586;2023-06-14T07:12:26;96661.97;;;21.46;68.11
30873;BME280;17579;42.690;2.586;2023-06-14T07:14:54;96665.38;;;21.23;67.94
30873;BME280;17579;42.690;2.586;2023-06-14T07:17:20;96668.56;;;21.01;68.32
30873;BME280;17579;42.690;2.586;2023-06-14T07:19:56;96673.13;;;20.82;69.29
30873;BME280;17579;42.690;2.586;2023-06-14T07:22:24;96682.41;;;20.68;69.39
30873;BME280;17579;42.690;2.586;2023-06-14T07:25:06;96686.00;;;20.55;69.38
30873;BME280;17579;42.690;2.586;2023-06-14T07:27:34;96689.19;;;20.45;69.80
30873;BME280;17579;42.690;2.586;2023-06-14T07:30:14;96690.31;;;20.37;70.10
30873;BME280;17579;42.690;2.586;2023-06-14T07:32:42;96679.03;;;20.29;69.95
30873;BME280;17579;42.690;2.586;2023-06-14T07:35:21;96689.03;;;20.21;69.94
30873;BME280;17579;42.690;2.586;2023-06-14T07:38:05;96694.44;;;20.15;70.22
30873;BME280;17579;42.690;2.586;2023-06-14T07:40:33;96693.19;;;20.17;70.16
30873;BME280;17579;42.690;2.586;2023-06-14T07:42:59;96701.59;;;20.21;70.30
30873;BME280;17579;42.690;2.586;2023-06-14T07:45:41;96705.31;;;20.20;69.33
30873;BME280;17579;42.690;2.586;2023-06-14T07:48:09;96709.88;;;20.19;69.44
30873;BME280;17579;42.690;2.586;2023-06-14T07:50:44;96711.69;;;20.25;70.17
30873;BME280;17579;42.690;2.586;2023-06-14T07:53:10;96719.31;;;20.29;69.66
30873;BME280;17579;42.690;2.586;2023-06-14T07:55:45;96718.88;;;20.32;69.39
30873;BME280;17579;42.690;2.586;2023-06-14T07:58:15;96719.69;;;20.32;69.60
30873;BME280;17579;42.690;2.586;2023-06-14T08:01:04;96726.84;;;20.38;69.28
30873;BME280;17579;42.690;2.586;2023-06-14T08:03:43;96713.53;;;20.50;68.70
30873;BME280;17579;42.690;2.586;2023-06-14T08:06:15;96719.72;;;20.51;69.13
30873;BME280;17579;42.690;2.586;2023-06-14T08:08:46;96712.81;;;20.62;68.63
30873;BME280;17579;42.690;2.586;2023-06-14T08:11:23;96717.31;;;20.68;69.05
30873;BME280;17579;42.690;2.586;2023-06-14T08:13:52;96717.84;;;20.76;68.45
30873;BME280;17579;42.690;2.586;2023-06-14T08:16:28;96725.53;;;20.91;67.71
30873;BME280;17579;42.690;2.586;2023-06-14T08:18:58;96733.53;;;20.98;68.13
30873;BME280;17579;42.690;2.586;2023-06-14T08:21:34;96722.56;;;21.00;68.13
30873;BME280;17579;42.690;2.586;2023-06-14T08:24:10;96727.72;;;21.01;67.85
30873;BME280;17579;42.690;2.586;2023-06-14T08:26:43;96727.63;;;21.08;68.09
30873;BME280;17579;42.690;2.586;2023-06-14T08:32:16;96736.75;;;21.07;67.47
30873;BME280;17579;42.690;2.586;2023-06-14T08:34:59;96741.44;;;21.11;67.19
30873;BME280;17579;42.690;2.586;2023-06-14T08:37:25;96733.53;;;21.17;66.57
30873;BME280;17579;42.690;2.586;2023-06-14T08:39:59;96726.19;;;21.24;67.36
30873;BME280;17579;42.690;2.586;2023-06-14T08:42:55;96720.38;;;21.27;67.12
30873;BME280;17579;42.690;2.586;2023-06-14T08:45:36;96728.41;;;21.45;67.13
30873;BME280;17579;42.690;2.586;2023-06-14T08:48:07;96728.84;;;21.61;67.05
30873;BME280;17579;42.690;2.586;2023-06-14T08:50:43;96730.53;;;21.74;66.36
30873;BME280;17579;42.690;2.586;2023-06-14T08:53:13;96733.00;;;21.75;66.72
30873;BME280;17579;42.690;2.586;2023-06-14T08:55:52;96742.94;;;21.75;66.20
30873;BME280;17579;42.690;2.586;2023-06-14T08:58:29;96748.22;;;21.82;65.75
30873;BME280;17579;42.690;2.586;2023-06-14T09:01:07;96749.03;;;21.82;65.91
30873;BME280;17579;42.690;2.586;2023-06-14T09:03:40;96739.09;;;21.83;64.90
30873;BME280;17579;42.690;2.586;2023-06-14T09:06:07;96754.81;;;21.86;65.32
30873;BME280;17579;42.690;2.586;2023-06-14T09:08:42;96761.25;;;21.96;64.65
30873;BME280;17579;42.690;2.586;2023-06-14T09:11:12;96758.63;;;22.08;64.62
30873;BME280;17579;42.690;2.586;2023-06-14T09:13:42;96754.88;;;22.21;63.65
30873;BME280;17579;42.690;2.586;2023-06-14T09:16:10;96752.25;;;22.33;63.88
30873;BME280;17579;42.690;2.586;2023-06-14T09:18:41;96761.03;;;22.40;63.93
30873;BME280;17579;42.690;2.586;2023-06-14T09:21:15;96758.00;;;22.48;63.17
30873;BME280;17579;42.690;2.586;2023-06-14T09:23:46;96764.91;;;22.44;62.60
30873;BME280;17579;42.690;2.586;2023-06-14T09:26:31;96761.13;;;22.45;63.22
30873;BME280;17579;42.690;2.586;2023-06-14T09:29:26;96763.50;;;22.54;64.37
30873;BME280;17579;42.690;2.586;2023-06-14T09:31:57;96747.56;;;22.64;62.18
30873;BME280;17579;42.690;2.586;2023-06-14T09:34:28;96765.13;;;22.55;63.09
30873;BME280;17579;42.690;2.586;2023-06-14T09:36:57;96761.16;;;22.57;61.89
30873;BME280;17579;42.690;2.586;2023-06-14T09:39:26;96771.47;;;22.60;62.41
30873;BME280;17579;42.690;2.586;2023-06-14T09:41:54;96774.50;;;22.64;62.18
30873;BME280;17579;42.690;2.586;2023-06-14T09:44:29;96776.63;;;22.62;61.99
30873;BME280;17579;42.690;2.586;2023-06-14T09:46:58;96784.00;;;22.66;61.38
30873;BME280;17579;42.690;2.586;2023-06-14T09:49:48;96791.38;;;22.71;61.94
30873;BME280;17579;42.690;2.586;2023-06-14T09:52:24;96785.19;;;22.71;62.10
30873;BME280;17579;42.690;2.586;2023-06-14T09:54:55;96787.88;;;22.71;61.48
30873;BME280;17579;42.690;2.586;2023-06-14T09:57:27;96799.38;;;22.66;61.27
30873;BME280;17579;42.690;2.586;2023-06-14T10:00:07;96785.88;;;22.66;61.02
30873;BME280;17579;42.690;2.586;2023-06-14T10:02:43;96792.56;;;22.63;61.35
30873;BME280;17579;42.690;2.586;2023-06-14T10:05:26;96789.88;;;22.63;61.84
30873;BME280;17579;42.690;2.586;2023-06-14T10:08:09;96788.34;;;22.67;61.50
30873;BME280;17579;42.690;2.586;2023-06-14T10:10:40;96788.25;;;22.74;61.56
30873;BME280;17579;42.690;2.586;2023-06-14T10:13:08;96791.38;;;22.71;60.51
30873;BME280;17579;42.690;2.586;2023-06-14T10:18:45;96790.25;;;22.67;61.13
30873;BME280;17579;42.690;2.586;2023-06-14T10:21:36;96788.94;;;22.70;60.86
30873;BME280;17579;42.690;2.586;2023-06-14T10:24:08;96793.41;;;22.76;60.79
30873;BME280;17579;42.690;2.586;2023-06-14T10:26:51;96780.72;;;22.76;60.69
30873;BME280;17579;42.690;2.586;2023-06-14T10:29:20;96783.56;;;22.81;59.94
30873;BME280;17579;42.690;2.586;2023-06-14T10:31:57;96773.59;;;22.82;59.28
30873;BME280;17579;42.690;2.586;2023-06-14T10:34:38;96775.09;;;22.78;59.75
30873;BME280;17579;42.690;2.586;2023-06-14T10:37:21;96779.09;;;22.75;58.85
30873;BME280;17579;42.690;2.586;2023-06-14T10:42:36;96779.78;;;22.82;59.49
30873;BME280;17579;42.690;2.586;2023-06-14T10:45:04;96777.69;;;22.84;58.40
30873;BME280;17579;42.690;2.586;2023-06-14T10:47:34;96778.88;;;22.89;59.29
30873;BME280;17579;42.690;2.586;2023-06-14T10:52:40;96779.91;;;23.11;59.45
30873;BME280;17579;42.690;2.586;2023-06-14T10:57:39;96782.25;;;23.20;57.09
30873;BME280;17579;42.690;2.586;2023-06-14T11:00:12;96789.41;;;23.14;57.82
30873;BME280;17579;42.690;2.586;2023-06-14T11:05:30;96789.41;;;23.14;57.98
30873;BME280;17579;42.690;2.586;2023-06-14T11:11:00;96791.38;;;23.30;56.84
30873;BME280;17579;42.690;2.586;2023-06-14T11:13:36;96786.06;;;23.35;56.33
30873;BME280;17579;42.690;2.586;2023-06-14T11:16:17;96796.03;;;23.47;56.36
30873;BME280;17579;42.690;2.586;2023-06-14T11:18:44;96791.44;;;23.47;55.97
30873;BME280;17579;42.690;2.586;2023-06-14T11:24:03;96788.03;;;23.52;55.08
30873;BME280;17579;42.690;2.586;2023-06-14T11:26:30;96790.25;;;23.55;54.85
30873;BME280;17579;42.690;2.586;2023-06-14T11:28:59;96783.31;;;23.59;54.86
30873;BME280;17579;42.690;2.586;2023-06-14T11:31:33;96784.31;;;23.70;55.21
30873;BME280;17579;42.690;2.586;2023-06-14T11:34:00;96789.38;;;24.07;55.94
30873;BME280;17579;42.690;2.586;2023-06-14T11:36:34;96795.22;;;24.50;54.30
30873;BME280;17579;42.690;2.586;2023-06-14T11:39:04;96783.34;;;24.85;53.92
30873;BME280;17579;42.690;2.586;2023-06-14T11:44:07;96788.16;;;25.39;51.90
30873;BME280;17579;42.690;2.586;2023-06-14T11:46:38;96796.28;;;25.61;50.87
30873;BME280;17579;42.690;2.586;2023-06-14T11:49:04;96797.22;;;25.72;51.96
30873;BME280;17579;42.690;2.586;2023-06-14T11:51:35;96783.31;;;26.13;52.08
30873;BME280;17579;42.690;2.586;2023-06-14T11:54:08;96788.09;;;26.65;49.08
30873;BME280;17579;42.690;2.586;2023-06-14T11:56:40;96785.03;;;26.89;48.52
30873;BME280;17579;42.690;2.586;2023-06-14T11:59:16;96787.94;;;27.20;49.42
30873;BME280;17579;42.690;2.586;2023-06-14T12:01:43;96791.94;;;27.60;47.79
30873;BME280;17579;42.690;2.586;2023-06-14T12:04:09;96787.94;;;27.93;47.57
30873;BME280;17579;42.690;2.586;2023-06-14T12:06:35;96794.00;;;28.21;45.24
30873;BME280;17579;42.690;2.586;2023-06-14T12:09:05;96787.47;;;28.22;45.32
30873;BME280;17579;42.690;2.586;2023-06-14T12:11:35;96785.22;;;27.83;46.33
30873;BME280;17579;42.690;2.586;2023-06-14T12:14:14;96808.81;;;27.72;46.85
30873;BME280;17579;42.690;2.586;2023-06-14T12:16:40;96804.59;;;28.23;45.83
30873;BME280;17579;42.690;2.586;2023-06-14T12:19:17;96804.41;;;28.71;45.44
30873;BME280;17579;42.690;2.586;2023-06-14T12:21:47;96798.66;;;28.93;43.13
30873;BME280;17579;42.690;2.586;2023-06-14T12:24:19;96800.00;;;28.90;43.98
30873;BME280;17579;42.690;2.586;2023-06-14T12:26:53;96794.78;;;29.19;42.92
30873;BME280;17579;42.690;2.586;2023-06-14T12:29:21;96795.31;;;29.37;42.02
30873;BME280;17579;42.690;2.586;2023-06-14T12:31:55;96791.41;;;29.59;41.96
30873;BME280;17579;42.690;2.586;2023-06-14T12:34:24;96791.88;;;29.76;42.05
30873;BME280;17579;42.690;2.586;2023-06-14T12:36:54;96784.13;;;29.99;40.93
30873;BME280;17579;42.690;2.586;2023-06-14T12:39:26;96795.56;;;30.06;41.16
30873;BME280;17579;42.690;2.586;2023-06-14T12:41:59;96789.81;;;30.08;40.77
30873;BME280;17579;42.690;2.586;2023-06-14T12:44:30;96779.50;;;29.99;41.03
30873;BME280;17579;42.690;2.586;2023-06-14T12:47:11;96776.81;;;29.94;41.10
30873;BME280;17579;42.690;2.586;2023-06-14T12:49:44;96768.66;;;29.89;41.05
30873;BME280;17579;42.690;2.586;2023-06-14T12:52:16;96772.41;;;29.98;41.77
30873;BME280;17579;42.690;2.586;2023-06-14T12:54:44;96764.47;;;30.07;40.86
30873;BME280;17579;42.690;2.586;2023-06-14T12:57:19;96767.22;;;30.02;40.72
30873;BME280;17579;42.690;2.586;2023-06-14T12:59:57;96763.47;;;29.93;41.44
30873;BME280;17579;42.690;2.586;2023-06-14T13:02:25;96769.16;;;29.96;41.62
30873;BME280;17579;42.690;2.586;2023-06-14T13:05:02;96769.63;;;30.09;43.14
30873;BME280;17579;42.690;2.586;2023-06-14T13:07:29;96765.09;;;30.28;42.63
30873;BME280;17579;42.690;2.586;2023-06-14T13:10:04;96757.19;;;30.32;40.97
30873;BME280;17579;42.690;2.586;2023-06-14T13:15:28;96770.56;;;29.88;41.63
30873;BME280;17579;42.690;2.586;2023-06-14T13:17:55;96767.81;;;29.94;40.86
30873;BME280;17579;42.690;2.586;2023-06-14T13:20:24;96769.44;;;29.95;40.95
30873;BME280;17579;42.690;2.586;2023-06-14T13:22:59;96766.72;;;29.89;42.08
30873;BME280;17579;42.690;2.586;2023-06-14T13:25:36;96770.59;;;29.83;40.45
30873;BME280;17579;42.690;2.586;2023-06-14T13:28:15;96760.53;;;29.73;40.15
30873;BME280;17579;42.690;2.586;2023-06-14T13:30:50;96757.34;;;29.61;41.00
30873;BME280;17579;42.690;2.586;2023-06-14T13:33:22;96764.16;;;29.53;40.46
30873;BME280;17579;42.690;2.586;2023-06-14T13:35:59;96762.00;;;29.50;40.51
30873;BME280;17579;42.690;2.586;2023-06-14T13:38:36;96766.31;;;29.57;41.33
30873;BME280;17579;42.690;2.586;2023-06-14T13:41:19;96773.13;;;29.59;41.32
30873;BME280;17579;42.690;2.586;2023-06-14T13:44:01;96775.84;;;29.59;40.80
30873;BME280;17579;42.690;2.586;2023-06-14T13:46:40;96771.50;;;29.58;40.56
30873;BME280;17579;42.690;2.586;2023-06-14T13:49:11;96771.03;;;29.41;40.81
30873;BME280;17579;42.690;2.586;2023-06-14T13:51:46;96759.09;;;29.21;41.36
30873;BME280;17579;42.690;2.586;2023-06-14T13:54:19;96765.44;;;29.01;41.81
30873;BME280;17579;42.690;2.586;2023-06-14T13:56:48;96759.19;;;28.80;40.71
30873;BME280;17579;42.690;2.586;2023-06-14T13:59:42;96769.00;;;28.45;42.25
30873;BME280;17579;42.690;2.586;2023-06-14T14:04:51;96764.28;;;27.94;42.63
30873;BME280;17579;42.690;2.586;2023-06-14T14:07:21;96787.06;;;27.72;42.04
30873;BME280;17579;42.690;2.586;2023-06-14T14:09:54;96778.31;;;27.55;42.21
30873;BME280;17579;42.690;2.586;2023-06-14T14:12:26;96784.25;;;27.46;43.56
30873;BME280;17579;42.690;2.586;2023-06-14T14:15:04;96776.38;;;27.40;43.45
30873;BME280;17579;42.690;2.586;2023-06-14T14:17:35;96776.88;;;27.37;43.12